Sycamore, Georgia
Current Conditions -  °F | °C
As of 8:15 PM on Friday 19 Dec 2014 (Local Time) from KTMA Reporting Station
Overcast Overcast  
Wind Chill: 12°   Ceiling: 10000
Heat Index: 12°   Visibility: 10mi
Dew Point:   Wind: 0mph
Humidity: 66%   Direction: NA
Pressure: 30.14"   Gusts: NA
Location:  31.67°N, 83.64°W
Report Text: KTMA 200115Z AUTO 00000KT 10SM SCT045 OVC100 12/06 A3014 RMK AO2 T01230060
Loading
Personal Weather Stations






























Interactive Weather Map New forecast layout! Learn more

10-Day Weather Forecast

Advertisements
Track Severe Weather on mobile